Time;durP1;ratioP1;P1;durP2;ratioP2;P2;SDS_P1;SDS_P2;PMS_P1;PMS_P2;Temp;Humidity;BMP_temperature;BMP_pressure;BME280_temperature;BME280_humidity;BME280_pressure;Samples;Min_cycle;Max_cycle;Signal;HPM_P1;HPM_P2
2023/08/06 00:03:26;;;;;;;31.52;16.83;;;;;;;13.19;100.00;100589.38;10469251;28;20068;-69
2023/08/06 00:08:27;;;;;;;30.30;15.82;;;;;;;13.19;100.00;100581.06;10434573;28;20044;-71
2023/08/06 00:13:27;;;;;;;29.48;16.52;;;;;;;13.18;100.00;100582.19;10471060;28;20045;-70
2023/08/06 00:18:28;;;;;;;32.28;17.33;;;;;;;13.14;100.00;100581.91;10449655;28;20048;-72
2023/08/06 00:23:28;;;;;;;30.67;18.00;;;;;;;13.11;100.00;100585.25;10453625;28;20076;-71
2023/08/06 00:28:29;;;;;;;35.70;17.67;;;;;;;13.17;100.00;100588.81;10446542;28;20037;-69
2023/08/06 00:33:31;;;;;;;32.58;18.00;;;;;;;13.19;100.00;100568.09;10435469;28;20049;-70
2023/08/06 00:38:31;;;;;;;32.05;18.63;;;;;;;13.23;100.00;100579.41;10429934;28;20061;-71
2023/08/06 00:43:32;;;;;;;34.05;18.42;;;;;;;13.24;100.00;100572.78;10421712;28;20067;-72
2023/08/06 00:48:32;;;;;;;38.15;19.90;;;;;;;13.29;100.00;100578.31;10436582;28;20041;-72
2023/08/06 00:53:33;;;;;;;37.10;18.75;;;;;;;13.28;100.00;100566.41;10454497;28;20045;-70
2023/08/06 00:58:34;;;;;;;36.70;20.83;;;;;;;13.26;100.00;100570.56;10456899;28;20064;-71
2023/08/06 01:03:35;;;;;;;35.00;19.80;;;;;;;13.26;100.00;100570.56;10454841;28;20032;-71
2023/08/06 01:08:52;;;;;;;37.22;21.25;;;;;;;13.28;100.00;100568.34;10436342;28;20067;-72
2023/08/06 01:14:23;;;;;;;35.58;20.23;;;;;;;13.26;100.00;100578.88;10444563;28;20109;-71
2023/08/06 01:19:23;;;;;;;35.38;20.17;;;;;;;13.35;100.00;100581.91;10464170;28;20044;-71
2023/08/06 01:24:26;;;;;;;38.78;20.67;;;;;;;13.32;100.00;100569.47;10482669;28;20036;-72
2023/08/06 01:29:41;;;;;;;37.65;20.95;;;;;;;13.35;100.00;100574.44;10481553;28;20045;-71
2023/08/06 01:34:43;;;;;;;35.38;19.90;;;;;;;13.35;100.00;100563.38;10467687;28;20450;-71
2023/08/06 01:39:45;;;;;;;37.83;22.15;;;;;;;13.34;100.00;100556.22;10382222;28;20048;-70
2023/08/06 01:44:45;;;;;;;45.05;22.77;;;;;;;13.39;100.00;100555.34;10379582;28;20033;-72
2023/08/06 01:49:47;;;;;;;37.40;20.77;;;;;;;13.41;100.00;100548.44;10432935;28;20183;-71
2023/08/06 01:54:49;;;;;;;36.92;20.23;;;;;;;13.41;100.00;100537.38;10431357;28;20049;-71
2023/08/06 01:59:49;;;;;;;35.45;20.55;;;;;;;13.39;100.00;100536.81;10459598;28;20057;-70
2023/08/06 02:04:50;;;;;;;37.30;20.30;;;;;;;13.40;100.00;100532.16;10463590;28;20048;-71
2023/08/06 02:09:50;;;;;;;39.42;20.48;;;;;;;13.41;100.00;100534.59;10449087;28;20132;-71
2023/08/06 02:14:51;;;;;;;35.67;18.13;;;;;;;13.44;100.00;100541.53;10457991;28;20084;-72
2023/08/06 02:19:53;;;;;;;32.40;18.13;;;;;;;13.46;100.00;100531.84;10436863;28;20045;-71
2023/08/06 02:24:55;;;;;;;37.85;18.90;;;;;;;13.46;100.00;100523.53;10459245;28;20065;-71
2023/08/06 02:29:55;;;;;;;34.63;18.45;;;;;;;13.50;100.00;100521.88;10460951;28;20044;-70
2023/08/06 02:34:56;;;;;;;32.75;17.23;;;;;;;13.47;100.00;100519.66;10443306;28;20037;-70
2023/08/06 02:39:56;;;;;;;33.53;17.10;;;;;;;13.46;100.00;100515.25;10456251;28;20065;-72
2023/08/06 02:44:57;;;;;;;34.42;17.00;;;;;;;13.48;100.00;100506.69;10444731;28;20515;-71
2023/08/06 02:49:57;;;;;;;32.80;17.02;;;;;;;13.44;100.00;100500.88;10402859;28;20066;-72
2023/08/06 02:55:00;;;;;;;30.38;17.10;;;;;;;13.42;100.00;100491.22;10452320;28;20048;-71
2023/08/06 03:00:00;;;;;;;48.15;18.02;;;;;;;13.41;100.00;100489.53;10449473;28;20064;-71
2023/08/06 03:05:01;;;;;;;30.75;16.92;;;;;;;13.41;100.00;100487.59;10438067;28;20041;-71
2023/08/06 03:10:02;;;;;;;34.30;16.70;;;;;;;13.44;100.00;100477.94;10435272;28;20063;-71
2023/08/06 03:15:02;;;;;;;27.08;16.13;;;;;;;13.43;100.00;100477.09;10458393;28;20048;-71
2023/08/06 03:20:03;;;;;;;26.60;15.98;;;;;;;13.44;100.00;100484.28;10457304;28;20041;-71
2023/08/06 03:25:04;;;;;;;30.60;16.38;;;;;;;13.48;100.00;100474.31;10447308;28;20510;-71
2023/08/06 03:30:05;;;;;;;32.92;17.42;;;;;;;13.47;100.00;100477.34;10443345;28;20037;-71
2023/08/06 03:35:06;;;;;;;32.72;17.48;;;;;;;13.42;100.00;100469.91;10449150;28;20063;-71
2023/08/06 03:40:07;;;;;;;38.00;17.95;;;;;;;13.41;100.00;100471.00;10454275;28;20090;-71
2023/08/06 03:45:08;;;;;;;35.08;19.83;;;;;;;13.40;100.00;100472.13;10452083;28;20045;-72
2023/08/06 03:50:09;;;;;;;35.60;17.65;;;;;;;13.38;100.00;100463.28;10445731;28;20033;-71
2023/08/06 03:55:10;;;;;;;31.20;19.08;;;;;;;13.38;100.00;100457.75;10453443;28;20053;-71
2023/08/06 04:00:11;;;;;;;33.65;17.48;;;;;;;13.44;100.00;100459.41;10443456;28;20440;-71
2023/08/06 04:05:12;;;;;;;35.15;18.75;;;;;;;13.44;100.00;100459.41;10435774;28;20047;-71
2023/08/06 04:10:12;;;;;;;33.30;17.05;;;;;;;13.41;100.00;100451.66;10431026;28;20457;-70
2023/08/06 04:15:13;;;;;;;32.53;17.35;;;;;;;13.37;100.00;100453.31;10440895;28;20545;-71
2023/08/06 04:20:13;;;;;;;33.55;17.48;;;;;;;13.39;100.00;100459.41;10434183;28;20046;-70
2023/08/06 04:25:14;;;;;;;29.65;16.60;;;;;;;13.39;100.00;100476.00;10432064;28;20037;-70
2023/08/06 04:30:14;;;;;;;32.00;15.63;;;;;;;13.42;100.00;100442.25;10468524;28;20049;-70
2023/08/06 04:35:15;;;;;;;30.08;16.20;;;;;;;13.43;100.00;100435.59;10471566;28;20115;-70
2023/08/06 04:40:15;;;;;;;30.30;15.40;;;;;;;13.47;100.00;100433.91;10458075;28;20509;-70
2023/08/06 04:45:17;;;;;;;24.70;14.57;;;;;;;13.45;100.00;100425.09;10469961;28;20033;-71
2023/08/06 04:50:19;;;;;;;24.63;14.90;;;;;;;13.43;100.00;100424.53;10479789;28;20041;-70
2023/08/06 04:55:21;;;;;;;27.65;14.43;;;;;;;13.47;100.00;100422.84;10471419;28;20048;-70
2023/08/06 05:00:21;;;;;;;28.60;14.80;;;;;;;13.61;100.00;100433.31;10444159;28;20092;-70
2023/08/06 05:05:22;;;;;;;26.17;13.88;;;;;;;13.61;100.00;100436.91;10381622;28;20076;-70
2023/08/06 05:10:26;;;;;;;22.85;13.80;;;;;;;13.70;100.00;100443.50;10428935;28;20037;-70
2023/08/06 05:15:26;;;;;;;24.35;12.93;;;;;;;13.74;100.00;100463.09;10449850;28;20037;-69
2023/08/06 05:20:27;;;;;;;23.00;13.55;;;;;;;13.77;100.00;100470.84;10405274;28;20041;-70
2023/08/06 05:25:27;;;;;;;23.73;11.82;;;;;;;13.86;100.00;100474.66;10438063;28;20080;-70
2023/08/06 05:30:28;;;;;;;23.08;13.77;;;;;;;13.95;100.00;100471.28;10457440;28;20041;-69
2023/08/06 05:35:30;;;;;;;22.63;13.50;;;;;;;14.05;100.00;100487.81;10427873;28;20041;-71
2023/08/06 05:40:34;;;;;;;22.60;13.68;;;;;;;14.22;100.00;100504.88;10436967;28;20059;-70
2023/08/06 05:45:35;;;;;;;24.15;14.07;;;;;;;14.35;100.00;100472.13;10411203;28;20041;-71
2023/08/06 05:50:36;;;;;;;22.77;12.68;;;;;;;14.49;100.00;100489.69;10446647;28;21181;-70
2023/08/06 05:55:36;;;;;;;21.98;11.95;;;;;;;14.62;100.00;100494.59;10438379;28;20041;-71
2023/08/06 06:00:37;;;;;;;22.70;12.27;;;;;;;14.73;100.00;100498.94;10434264;28;20047;-69
2023/08/06 06:05:38;;;;;;;20.35;12.38;;;;;;;14.80;100.00;100501.38;10413043;28;20408;-70
2023/08/06 06:10:39;;;;;;;22.20;11.43;;;;;;;14.86;100.00;100513.22;10438173;28;20224;-70
2023/08/06 06:15:39;;;;;;;19.75;11.63;;;;;;;14.97;100.00;100512.03;10428196;28;20045;-69
2023/08/06 06:20:40;;;;;;;20.52;11.55;;;;;;;15.00;100.00;100508.66;10407765;28;20037;-70
2023/08/06 06:25:46;;;;;;;15.68;10.38;;;;;;;15.00;100.00;100522.50;10431786;28;20041;-69
2023/08/06 06:30:47;;;;;;;16.55;10.95;;;;;;;15.04;100.00;100520.81;10458817;28;20076;-69
2023/08/06 06:35:48;;;;;;;17.35;11.32;;;;;;;15.13;100.00;100509.91;10446521;28;20049;-70
2023/08/06 06:40:55;;;;;;;14.77;10.50;;;;;;;15.33;100.00;100533.81;10445210;28;20041;-69
2023/08/06 06:45:57;;;;;;;16.02;10.23;;;;;;;15.60;100.00;100529.63;10428449;28;20128;-69
2023/08/06 06:50:58;;;;;;;14.18;10.80;;;;;;;15.82;100.00;100538.25;10453992;28;20045;-69
2023/08/06 06:56:03;;;;;;;13.63;10.02;;;;;;;16.00;100.00;100535.78;10456417;28;20044;-70
2023/08/06 07:01:04;;;;;;;13.68;9.70;;;;;;;16.00;100.00;100538.56;10440906;28;20044;-69
2023/08/06 07:06:05;;;;;;;14.18;11.07;;;;;;;16.17;100.00;100540.84;10455769;28;20052;-69
2023/08/06 07:11:06;;;;;;;11.73;8.48;;;;;;;16.42;100.00;100531.28;10449968;28;20041;-70
2023/08/06 07:16:07;;;;;;;12.57;9.48;;;;;;;16.18;100.00;100462.75;10417142;28;20136;-67
2023/08/06 07:21:07;;;;;;;13.93;9.35;;;;;;;16.84;100.00;100527.53;10457865;28;20453;-69
2023/08/06 07:26:09;;;;;;;14.05;10.15;;;;;;;17.15;100.00;100527.78;10465740;28;20063;-68
2023/08/06 07:31:09;;;;;;;11.38;8.20;;;;;;;17.79;100.00;100531.84;10465573;28;20528;-68
2023/08/06 07:36:11;;;;;;;10.40;8.55;;;;;;;18.21;100.00;100530.66;10478258;28;20055;-69
2023/08/06 07:41:11;;;;;;;8.65;6.88;;;;;;;18.27;100.00;100534.97;10466888;28;20041;-69
2023/08/06 07:46:13;;;;;;;8.35;6.68;;;;;;;18.35;100.00;100531.44;10462337;28;20033;-68
2023/08/06 07:51:13;;;;;;;8.02;6.85;;;;;;;18.39;100.00;100531.59;10444710;28;20048;-68
2023/08/06 07:56:14;;;;;;;10.80;7.82;;;;;;;18.40;100.00;100524.06;10420779;28;20044;-68
2023/08/06 08:01:14;;;;;;;7.85;6.32;;;;;;;18.43;100.00;100531.81;10400780;28;20041;-68
2023/08/06 08:06:15;;;;;;;7.18;6.25;;;;;;;18.33;100.00;100533.72;10435296;28;20350;-68
2023/08/06 08:11:16;;;;;;;8.43;6.40;;;;;;;18.55;100.00;100526.50;10439401;28;20075;-68
2023/08/06 08:16:16;;;;;;;7.10;5.60;;;;;;;18.68;100.00;100525.59;10441745;28;20041;-68
2023/08/06 08:21:18;;;;;;;5.85;5.10;;;;;;;19.00;100.00;100526.50;10436052;28;20496;-68
2023/08/06 08:26:18;;;;;;;6.70;4.80;;;;;;;18.77;100.00;100525.66;10442463;28;20086;-67
2023/08/06 08:31:19;;;;;;;5.10;4.35;;;;;;;18.74;100.00;100529.91;10438081;28;20049;-68
2023/08/06 08:36:19;;;;;;;6.85;4.40;;;;;;;19.05;100.00;100509.59;10441300;28;20044;-68
2023/08/06 08:41:19;;;;;;;6.38;4.85;;;;;;;19.13;100.00;100513.59;10433056;28;20041;-68
2023/08/06 08:46:20;;;;;;;8.00;4.38;;;;;;;19.50;100.00;100508.66;10447980;28;20061;-68
2023/08/06 08:51:21;;;;;;;7.03;4.22;;;;;;;19.85;100.00;100492.81;10447697;28;20041;-68
2023/08/06 08:56:21;;;;;;;5.03;3.80;;;;;;;19.84;100.00;100484.75;10431974;28;20124;-68
2023/08/06 09:01:22;;;;;;;4.95;3.05;;;;;;;19.87;100.00;100476.56;10444922;28;20033;-68
2023/08/06 09:06:24;;;;;;;3.90;2.88;;;;;;;19.95;100.00;100492.50;10430660;28;20037;-68
2023/08/06 09:11:25;;;;;;;2.30;2.03;;;;;;;20.03;100.00;100498.41;10452690;28;20491;-68
2023/08/06 09:16:25;;;;;;;3.05;1.60;;;;;;;20.33;100.00;100491.03;10442167;28;20074;-67
2023/08/06 09:21:26;;;;;;;3.67;1.40;;;;;;;20.48;100.00;100489.72;10450428;28;20067;-67
2023/08/06 09:26:33;;;;;;;3.28;1.65;;;;;;;20.70;100.00;100494.31;10440922;28;20037;-68
2023/08/06 09:31:40;;;;;;;1.90;1.50;;;;;;;20.61;100.00;100476.72;10461253;28;20041;-68
2023/08/06 09:36:51;;;;;;;1.83;1.02;;;;;;;20.59;100.00;100477.06;10461546;28;20053;-68
2023/08/06 09:41:55;;;;;;;2.58;1.15;;;;;;;20.70;100.00;100488.72;10469334;28;20070;-68
2023/08/06 09:46:59;;;;;;;3.00;1.58;;;;;;;20.76;100.00;100491.00;10480845;28;20045;-67
2023/08/06 09:52:00;;;;;;;3.28;1.23;;;;;;;20.99;100.00;100490.78;10420908;28;20045;-68
2023/08/06 09:57:00;;;;;;;5.57;1.20;;;;;;;21.01;100.00;100482.88;10419397;28;20061;-68
2023/08/06 10:02:01;;;;;;;4.15;1.33;;;;;;;21.09;100.00;100489.63;10413569;28;20038;-69
2023/08/06 10:07:01;;;;;;;2.17;1.17;;;;;;;21.00;100.00;100502.78;10390446;28;20046;-68
2023/08/06 10:12:02;;;;;;;4.40;1.02;;;;;;;21.12;100.00;100486.94;10416560;28;20041;-67
2023/08/06 10:17:03;;;;;;;1.70;0.90;;;;;;;21.45;100.00;100502.31;10419183;28;20428;-68
2023/08/06 10:22:14;;;;;;;2.10;0.90;;;;;;;21.81;100.00;100485.00;10419307;28;20045;-68
2023/08/06 10:27:29;;;;;;;1.42;0.95;;;;;;;22.08;100.00;100482.81;10457040;28;20121;-68
2023/08/06 10:32:49;;;;;;;1.50;1.23;;;;;;;21.66;100.00;100480.78;10459129;28;20104;-68
2023/08/06 10:37:50;;;;;;;3.42;1.00;;;;;;;21.49;100.00;100487.31;10452646;28;20055;-68
2023/08/06 10:42:50;;;;;;;1.73;1.05;;;;;;;21.65;100.00;100490.34;10452951;28;20049;-68
2023/08/06 10:47:51;;;;;;;2.72;1.25;;;;;;;21.53;100.00;100485.47;10446175;28;20087;-68
2023/08/06 10:52:51;;;;;;;1.77;0.93;;;;;;;21.66;100.00;100496.78;10458321;28;20041;-67
2023/08/06 10:57:52;;;;;;;2.67;1.30;;;;;;;22.02;100.00;100482.19;10448896;28;20048;-68
2023/08/06 11:02:53;;;;;;;2.25;1.20;;;;;;;22.25;100.00;100462.25;10446757;28;20064;-66
2023/08/06 11:07:53;;;;;;;2.67;0.85;;;;;;;21.74;100.00;100460.28;10453896;28;22151;-69
2023/08/06 11:12:54;;;;;;;1.65;1.10;;;;;;;22.03;100.00;100485.81;10457029;28;20041;-67
2023/08/06 11:17:54;;;;;;;1.75;1.20;;;;;;;22.72;100.00;100465.59;10451781;28;20037;-68
2023/08/06 11:22:55;;;;;;;2.65;1.17;;;;;;;23.17;100.00;100459.16;10440073;28;20037;-68
2023/08/06 11:27:55;;;;;;;1.67;1.00;;;;;;;23.56;100.00;100458.78;10449658;28;20521;-68
2023/08/06 11:32:56;;;;;;;1.20;0.82;;;;;;;23.87;100.00;100438.47;10454307;28;20087;-67
2023/08/06 11:37:59;;;;;;;1.48;1.10;;;;;;;23.46;100.00;100450.81;10450043;28;20032;-67
2023/08/06 11:42:59;;;;;;;2.05;1.10;;;;;;;22.48;100.00;100454.28;10436475;28;20041;-67
2023/08/06 11:48:00;;;;;;;2.88;1.33;;;;;;;22.29;100.00;100463.22;10440971;28;20033;-67
2023/08/06 11:53:00;;;;;;;1.42;1.02;;;;;;;23.02;100.00;100459.81;10392083;28;20497;-67
2023/08/06 11:58:04;;;;;;;2.35;1.00;;;;;;;23.92;100.00;100443.88;10427258;28;20119;-67
2023/08/06 12:03:05;;;;;;;1.33;0.90;;;;;;;24.81;100.00;100429.91;10438325;28;20041;-68
2023/08/06 12:08:05;;;;;;;1.45;0.90;;;;;;;24.91;100.00;100420.94;10438821;28;20060;-67
2023/08/06 12:13:06;;;;;;;3.97;1.15;;;;;;;25.29;100.00;100425.91;10443142;28;20052;-66
2023/08/06 12:18:07;;;;;;;1.10;0.80;;;;;;;25.91;99.22;100437.44;10442267;28;20049;-68
2023/08/06 12:23:09;;;;;;;2.15;0.95;;;;;;;25.68;100.00;100431.66;10439858;28;20041;-67
2023/08/06 12:28:10;;;;;;;1.95;1.10;;;;;;;25.60;100.00;100445.97;10440906;28;20037;-67
2023/08/06 12:33:11;;;;;;;3.15;0.93;;;;;;;25.88;99.66;100434.50;10439276;28;20385;-68
2023/08/06 12:38:11;;;;;;;2.22;1.20;;;;;;;25.89;100.00;100441.78;10440445;28;20040;-66
2023/08/06 12:43:12;;;;;;;1.65;0.90;;;;;;;27.01;92.91;100423.06;10438325;28;20045;-70
2023/08/06 12:48:13;;;;;;;1.00;0.80;;;;;;;26.89;94.39;100426.06;10440928;28;20037;-66
2023/08/06 12:53:14;;;;;;;1.98;1.00;;;;;;;24.37;99.87;100439.97;10440945;28;20060;-68
2023/08/06 12:58:14;;;;;;;1.10;0.85;;;;;;;22.85;100.00;100462.81;10439384;28;20061;-69
2023/08/06 13:03:14;;;;;;;1.38;1.00;;;;;;;22.19;100.00;100472.00;10444035;28;20037;-67
2023/08/06 13:08:15;;;;;;;1.33;1.02;;;;;;;21.64;100.00;100474.72;10456252;28;20483;-66
2023/08/06 13:13:15;;;;;;;1.58;1.10;;;;;;;21.52;100.00;100464.22;10446332;28;20082;-67
2023/08/06 13:18:16;;;;;;;2.53;1.70;;;;;;;21.74;100.00;100459.47;10445662;28;20041;-67
2023/08/06 13:23:16;;;;;;;4.22;1.85;;;;;;;21.71;100.00;100468.56;10439507;28;20037;-67
2023/08/06 13:28:17;;;;;;;2.05;0.90;;;;;;;22.27;100.00;100483.16;10450253;28;20037;-66
2023/08/06 13:33:17;;;;;;;2.95;1.02;;;;;;;22.95;100.00;100474.41;10448589;28;20033;-67
2023/08/06 13:38:18;;;;;;;2.35;1.17;;;;;;;22.42;100.00;100480.91;10460076;28;20044;-66
2023/08/06 13:43:19;;;;;;;1.85;1.10;;;;;;;21.90;100.00;100485.72;10458643;28;20045;-65
2023/08/06 13:48:19;;;;;;;1.52;1.00;;;;;;;21.62;100.00;100467.78;10448713;28;20165;-66
2023/08/06 13:53:20;;;;;;;1.45;0.90;;;;;;;22.90;100.00;100476.59;10455669;28;20033;-66
2023/08/06 13:58:20;;;;;;;3.53;1.23;;;;;;;24.87;100.00;100453.81;10461631;28;20384;-67
2023/08/06 14:03:21;;;;;;;1.42;1.30;;;;;;;24.86;100.00;100452.16;10459772;28;20497;-67
2023/08/06 14:08:22;;;;;;;3.63;1.33;;;;;;;26.12;100.00;100467.28;10444323;28;20087;-67
2023/08/06 14:13:22;;;;;;;1.52;0.77;;;;;;;26.84;94.10;100441.31;10445889;28;20037;-67
2023/08/06 14:18:22;;;;;;;1.15;0.80;;;;;;;27.04;90.18;100449.72;10446589;28;20029;-66
2023/08/06 14:23:23;;;;;;;2.15;1.00;;;;;;;27.29;90.50;100464.34;10445572;28;20044;-67
2023/08/06 14:28:23;;;;;;;2.22;0.90;;;;;;;27.25;87.27;100471.94;10438909;28;20572;-67
2023/08/06 14:33:24;;;;;;;1.02;0.82;;;;;;;27.47;89.24;100479.56;10444866;28;20052;-67
2023/08/06 14:38:24;;;;;;;3.17;1.20;;;;;;;27.22;86.09;100473.47;10443105;28;20067;-67
2023/08/06 14:43:25;;;;;;;1.58;0.88;;;;;;;26.64;85.51;100482.91;10446525;28;20064;-68
2023/08/06 14:48:26;;;;;;;2.67;1.08;;;;;;;26.82;85.86;100482.44;10438151;28;20071;-68
2023/08/06 14:53:26;;;;;;;1.15;0.85;;;;;;;26.67;77.75;100470.88;10441126;28;20516;-67
2023/08/06 14:58:27;;;;;;;1.42;0.98;;;;;;;26.86;76.11;100477.69;10444530;28;20037;-69
2023/08/06 15:03:28;;;;;;;1.52;0.85;;;;;;;27.18;73.61;100467.78;10443719;28;20041;-67
2023/08/06 15:08:28;;;;;;;1.45;1.00;;;;;;;26.48;77.32;100485.81;10442434;28;20046;-67
2023/08/06 15:13:29;;;;;;;1.80;0.85;;;;;;;26.55;76.97;100497.22;10444101;28;20053;-67
2023/08/06 15:18:30;;;;;;;2.75;1.00;;;;;;;26.59;75.40;100497.34;10440969;28;20033;-68
2023/08/06 15:23:30;;;;;;;2.15;1.00;;;;;;;27.10;76.88;100508.41;10438988;28;20041;-67
2023/08/06 15:28:31;;;;;;;1.25;0.85;;;;;;;26.68;77.13;100517.66;10443435;28;20040;-67
2023/08/06 15:33:31;;;;;;;2.00;0.90;;;;;;;26.50;76.27;100527.75;10444389;28;20033;-65
2023/08/06 15:38:32;;;;;;;1.92;1.30;;;;;;;26.84;73.95;100508.31;10443116;28;20037;-68
2023/08/06 15:43:34;;;;;;;1.52;1.10;;;;;;;26.63;74.82;100520.81;10442236;28;20051;-68
2023/08/06 15:48:34;;;;;;;1.00;0.60;;;;;;;26.62;76.55;100529.66;10440471;28;20086;-67
2023/08/06 15:53:34;;;;;;;1.48;0.88;;;;;;;26.92;74.22;100527.03;10451642;28;20087;-67
2023/08/06 15:58:35;;;;;;;1.58;0.90;;;;;;;26.50;77.18;100531.41;10446216;28;20052;-67
2023/08/06 16:03:39;;;;;;;1.80;1.13;;;;;;;26.10;78.00;100541.00;10453844;28;20037;-69
2023/08/06 16:08:39;;;;;;;1.60;1.00;;;;;;;26.58;77.54;100546.50;10444500;28;20065;-66
2023/08/06 16:13:40;;;;;;;1.55;0.80;;;;;;;26.53;75.26;100543.97;10450780;28;20457;-69
2023/08/06 16:18:40;;;;;;;2.50;0.70;;;;;;;25.31;77.72;100557.97;10451430;28;20547;-67
2023/08/06 16:23:41;;;;;;;2.00;1.00;;;;;;;23.67;84.21;100592.03;10449966;28;20044;-67
2023/08/06 16:28:41;;;;;;;2.60;1.00;;;;;;;22.54;89.89;100616.41;10456317;28;20324;-67
2023/08/06 16:33:42;;;;;;;2.47;1.23;;;;;;;22.09;94.77;100627.41;10417495;28;20498;-66
2023/08/06 16:38:43;;;;;;;1.70;0.70;;;;;;;21.92;97.65;100639.53;10414344;28;20042;-67
2023/08/06 16:43:44;;;;;;;6.03;1.98;;;;;;;21.56;99.79;100641.66;10391606;28;20429;-66
2023/08/06 16:48:44;;;;;;;1.70;0.80;;;;;;;21.36;100.00;100648.75;10396475;28;20100;-67
2023/08/06 16:53:46;;;;;;;2.47;0.98;;;;;;;21.40;100.00;100662.94;10389607;28;20053;-65
2023/08/06 16:58:46;;;;;;;1.50;0.90;;;;;;;21.11;100.00;100655.25;10423322;28;20099;-66
2023/08/06 17:03:49;;;;;;;1.55;0.90;;;;;;;20.99;100.00;100680.28;10441469;28;20079;-65
2023/08/06 17:08:50;;;;;;;2.03;1.10;;;;;;;20.85;100.00;100674.84;10456182;28;20052;-66
2023/08/06 17:13:50;;;;;;;2.33;1.33;;;;;;;20.73;100.00;100667.09;10455395;28;20045;-67
2023/08/06 17:18:51;;;;;;;3.53;1.00;;;;;;;20.56;100.00;100674.28;10456036;28;20081;-66
2023/08/06 17:23:51;;;;;;;2.92;0.90;;;;;;;20.55;100.00;100677.41;10449916;28;20057;-66
2023/08/06 17:28:53;;;;;;;2.22;1.40;;;;;;;20.41;100.00;100685.13;10461362;28;20060;-65
2023/08/06 17:33:53;;;;;;;2.67;1.33;;;;;;;20.23;100.00;100687.84;10442868;28;20037;-66
2023/08/06 17:38:54;;;;;;;1.30;1.10;;;;;;;19.91;100.00;100697.44;10438534;28;20045;-66
2023/08/06 17:43:55;;;;;;;3.28;1.27;;;;;;;19.52;100.00;100680.28;10459812;28;20036;-65
2023/08/06 17:48:56;;;;;;;2.35;1.20;;;;;;;19.51;100.00;100701.00;10448051;28;20045;-66
2023/08/06 17:53:56;;;;;;;2.47;1.10;;;;;;;19.48;100.00;100712.78;10432750;28;20101;-66
2023/08/06 17:58:57;;;;;;;2.45;1.35;;;;;;;19.36;100.00;100704.97;10443729;28;20048;-65
2023/08/06 18:03:57;;;;;;;3.78;1.10;;;;;;;19.05;100.00;100677.00;10440681;28;20048;-66
2023/08/06 18:08:58;;;;;;;3.78;1.10;;;;;;;19.20;100.00;100716.84;10426157;28;20030;-66
2023/08/06 18:13:58;;;;;;;2.03;1.38;;;;;;;18.80;100.00;100663.69;10440640;28;20052;-66
2023/08/06 18:18:59;;;;;;;3.92;1.75;;;;;;;19.23;100.00;100713.44;10442561;28;20030;-68
2023/08/06 18:23:59;;;;;;;1.30;0.82;;;;;;;19.12;100.00;100708.09;10425761;28;20053;-66
2023/08/06 18:29:01;;;;;;;1.42;0.98;;;;;;;19.08;100.00;100715.44;10437941;28;20063;-66
2023/08/06 18:34:01;;;;;;;1.10;0.88;;;;;;;18.85;100.00;100724.91;10441562;28;20049;-65
2023/08/06 18:39:02;;;;;;;2.28;1.10;;;;;;;18.45;100.00;100730.22;10443105;28;20041;-65
2023/08/06 18:44:02;;;;;;;4.15;1.85;;;;;;;18.08;100.00;100735.69;10440074;28;20042;-66
2023/08/06 18:49:04;;;;;;;3.03;1.90;;;;;;;17.83;100.00;100741.75;10436285;28;20080;-65
2023/08/06 18:54:05;;;;;;;4.63;1.50;;;;;;;17.63;100.00;100742.88;10444426;28;20040;-66
2023/08/06 18:59:06;;;;;;;3.28;1.20;;;;;;;17.18;100.00;100709.97;10478833;28;20032;-65
2023/08/06 19:04:07;;;;;;;2.15;1.40;;;;;;;17.24;100.00;100752.44;10482478;28;20064;-65
2023/08/06 19:09:07;;;;;;;2.45;1.52;;;;;;;17.05;100.00;100761.63;10480061;28;20053;-64
2023/08/06 19:14:08;;;;;;;2.35;1.58;;;;;;;16.94;100.00;100760.94;10421590;28;20049;-65
2023/08/06 19:19:08;;;;;;;4.00;1.42;;;;;;;16.78;100.00;100772.53;10416277;28;20029;-66
2023/08/06 19:24:08;;;;;;;4.88;1.80;;;;;;;16.59;100.00;100776.13;10416798;28;20033;-66
2023/08/06 19:29:09;;;;;;;3.70;2.28;;;;;;;16.48;100.00;100780.97;10412574;28;20072;-66
2023/08/06 19:34:09;;;;;;;4.05;2.50;;;;;;;16.33;100.00;100779.22;10412205;28;20041;-65
2023/08/06 19:39:10;;;;;;;3.35;2.50;;;;;;;16.22;100.00;100776.84;10416124;28;20401;-65
2023/08/06 19:44:10;;;;;;;3.83;2.75;;;;;;;16.10;100.00;100791.13;10412935;28;20221;-65
2023/08/06 19:49:11;;;;;;;3.55;2.38;;;;;;;15.98;100.00;100783.22;10415422;28;20076;-66
2023/08/06 19:54:11;;;;;;;6.90;3.28;;;;;;;15.84;100.00;100777.50;10413009;28;20048;-65
2023/08/06 19:59:12;;;;;;;3.05;2.08;;;;;;;15.78;100.00;100789.78;10413213;28;20049;-65
2023/08/06 20:04:13;;;;;;;4.45;2.50;;;;;;;15.66;100.00;100787.34;10436309;28;20549;-66
2023/08/06 20:09:15;;;;;;;2.17;1.73;;;;;;;15.63;100.00;100787.94;10439529;28;20033;-65
2023/08/06 20:14:15;;;;;;;4.75;2.40;;;;;;;15.61;100.00;100779.06;10436778;28;20120;-66
2023/08/06 20:19:16;;;;;;;2.92;2.05;;;;;;;15.57;100.00;100782.72;10451813;28;20033;-65
2023/08/06 20:24:16;;;;;;;4.40;2.45;;;;;;;15.49;100.00;100787.75;10455729;28;20056;-66
2023/08/06 20:29:17;;;;;;;3.50;1.90;;;;;;;15.43;100.00;100794.47;10450680;28;20033;-66
2023/08/06 20:34:17;;;;;;;3.92;1.88;;;;;;;15.34;100.00;100791.47;10457435;28;20041;-66
2023/08/06 20:39:18;;;;;;;3.10;2.22;;;;;;;15.29;100.00;100796.22;10438800;28;20057;-67
2023/08/06 20:44:18;;;;;;;4.55;2.20;;;;;;;15.22;100.00;100784.63;10455706;28;20047;-66
2023/08/06 20:49:19;;;;;;;3.60;2.10;;;;;;;15.18;100.00;100791.88;10464174;28;20061;-66
2023/08/06 20:54:19;;;;;;;6.53;1.92;;;;;;;15.13;100.00;100796.34;10453057;28;20037;-66
2023/08/06 20:59:20;;;;;;;4.13;2.40;;;;;;;14.94;100.00;100775.91;10445949;28;20042;-65
2023/08/06 21:04:20;;;;;;;5.15;2.60;;;;;;;15.02;100.00;100794.72;10450568;28;20040;-65
2023/08/06 21:09:21;;;;;;;3.42;2.40;;;;;;;14.95;100.00;100794.22;10454757;28;20061;-65
2023/08/06 21:14:21;;;;;;;5.60;3.13;;;;;;;14.87;100.00;100800.38;10447308;28;20048;-66
2023/08/06 21:19:22;;;;;;;4.50;2.83;;;;;;;14.81;100.00;100804.28;10479201;28;20063;-66
2023/08/06 21:24:22;;;;;;;5.97;3.03;;;;;;;14.78;100.00;100813.16;10470875;28;20040;-66
2023/08/06 21:29:22;;;;;;;4.07;2.83;;;;;;;14.70;100.00;100798.78;10481691;28;20066;-66
2023/08/06 21:34:24;;;;;;;3.38;2.58;;;;;;;14.63;100.00;100801.00;10482193;28;20115;-66
2023/08/06 21:39:24;;;;;;;3.83;2.55;;;;;;;14.57;100.00;100793.84;10481132;28;20056;-63
2023/08/06 21:44:25;;;;;;;3.63;2.72;;;;;;;14.53;100.00;100803.78;10481753;28;20507;-65
2023/08/06 21:49:27;;;;;;;4.65;3.00;;;;;;;14.49;100.00;100797.16;10470949;28;20495;-66
2023/08/06 21:54:28;;;;;;;4.85;3.13;;;;;;;14.44;100.00;100806.31;10484225;28;20045;-66
2023/08/06 21:59:28;;;;;;;3.97;2.78;;;;;;;14.40;100.00;100804.41;10477896;28;20095;-65
2023/08/06 22:04:29;;;;;;;3.50;2.65;;;;;;;14.36;100.00;100808.84;10484382;28;20036;-65
2023/08/06 22:09:29;;;;;;;4.93;3.08;;;;;;;14.35;100.00;100815.50;10461519;28;20043;-66
2023/08/06 22:14:30;;;;;;;8.23;3.72;;;;;;;14.36;100.00;100814.38;10480898;28;20097;-65
2023/08/06 22:19:30;;;;;;;3.78;2.72;;;;;;;14.40;100.00;100816.31;10482035;28;20045;-65
2023/08/06 22:24:31;;;;;;;5.20;3.08;;;;;;;14.48;100.00;100812.13;10482400;28;20048;-66
2023/08/06 22:29:31;;;;;;;6.75;2.60;;;;;;;14.56;100.00;100819.06;10466404;28;20053;-66
2023/08/06 22:34:33;;;;;;;3.60;2.50;;;;;;;14.52;100.00;100825.13;10487095;28;20032;-66
2023/08/06 22:39:34;;;;;;;6.05;2.65;;;;;;;14.48;100.00;100823.22;10475949;28;20062;-65